createdAt,value
2018-11-22T12:17:13.745Z,101730.83
2018-11-22T12:19:42.343Z,101731.78
2018-11-22T12:22:10.895Z,101730.60
2018-11-22T12:24:40.221Z,101731.19
2018-11-22T12:27:08.854Z,101726.80
2018-11-22T12:29:37.453Z,101733.16
2018-11-22T12:32:11.850Z,101730.22
2018-11-22T12:34:45.663Z,101728.70
2018-11-22T12:37:19.531Z,101734.34
2018-11-22T12:39:48.194Z,101733.06
2018-11-22T12:42:16.761Z,101730.56
2018-11-22T12:44:45.402Z,101725.66
2018-11-22T12:47:14.093Z,101724.58
2018-11-22T12:49:45.047Z,101719.30
2018-11-22T12:52:13.750Z,101721.73
2018-11-22T12:54:42.337Z,101723.00
2018-11-22T12:57:11.549Z,101724.95
2018-11-22T12:59:41.241Z,101719.69
2018-11-22T13:02:09.812Z,101716.39
2018-11-22T13:04:38.408Z,101713.44
2018-11-22T13:07:07.644Z,101709.97
2018-11-22T13:09:36.354Z,101718.70
2018-11-22T13:12:05.422Z,101713.80
2018-11-22T13:14:34.185Z,101721.19
2018-11-22T13:17:02.889Z,101726.06
2018-11-22T13:19:31.437Z,101721.16
2018-11-22T13:22:00.119Z,101716.17
2018-11-22T13:24:28.795Z,101722.82
2018-11-22T13:26:57.297Z,101722.05
2018-11-22T13:29:25.887Z,101728.27
2018-11-22T13:31:54.563Z,101725.58
2018-11-22T13:34:23.144Z,101716.73
2018-11-22T13:36:51.726Z,101722.05
2018-11-22T13:39:20.254Z,101722.28
2018-11-22T13:41:48.951Z,101724.83
2018-11-22T13:44:18.338Z,101727.12
2018-11-22T13:46:46.992Z,101730.38
2018-11-22T13:49:15.543Z,101724.56
2018-11-22T13:51:44.168Z,101730.64
2018-11-22T13:54:12.864Z,101731.91
2018-11-22T13:56:41.598Z,101734.45
2018-11-22T13:59:18.523Z,101732.31
2018-11-22T14:01:47.110Z,101741.05
2018-11-22T14:04:15.774Z,101722.75
2018-11-22T14:06:44.267Z,101732.70
2018-11-22T14:09:12.925Z,101728.70
2018-11-22T14:11:41.555Z,101726.23
2018-11-22T14:14:10.124Z,101729.98
2018-11-22T14:16:38.773Z,101729.11
2018-11-22T14:19:07.629Z,101725.84
2018-11-22T14:21:36.161Z,101724.28
2018-11-22T14:24:04.846Z,101723.16
2018-11-22T14:26:33.700Z,101729.53
2018-11-22T14:29:02.443Z,101728.17
2018-11-22T14:31:31.077Z,101731.07
2018-11-22T14:33:59.762Z,101726.90
2018-11-22T14:36:28.354Z,101724.75
2018-11-22T14:38:56.921Z,101727.77
2018-11-22T14:41:25.763Z,101730.03
2018-11-22T14:43:54.442Z,101732.94
2018-11-22T14:46:23.354Z,101726.67
2018-11-22T14:48:52.093Z,101729.05
2018-11-22T14:51:35.945Z,101721.70
2018-11-22T14:54:04.704Z,101727.98
2018-11-22T14:56:33.550Z,101728.69
2018-11-22T14:59:02.230Z,101733.26
2018-11-22T15:01:30.845Z,101731.19
2018-11-22T15:03:59.421Z,101727.41
2018-11-22T15:06:28.056Z,101725.74
2018-11-22T15:08:56.631Z,101724.08
2018-11-22T15:11:25.887Z,101718.11
2018-11-22T15:13:54.574Z,101722.91
2018-11-22T15:16:23.282Z,101721.73
2018-11-22T15:18:51.956Z,101726.10
2018-11-22T15:21:20.613Z,101727.89
2018-11-22T15:23:49.457Z,101727.41
2018-11-22T15:26:18.021Z,101724.27
2018-11-22T15:28:46.882Z,101720.90
2018-11-22T15:31:15.506Z,101726.40
2018-11-22T15:33:44.328Z,101725.67
2018-11-22T15:36:12.958Z,101719.76
2018-11-22T15:38:41.533Z,101718.92
2018-11-22T15:41:10.069Z,101719.84
2018-11-22T15:43:38.633Z,101721.58
2018-11-22T15:46:07.230Z,101715.39
2018-11-22T15:48:36.005Z,101722.47
2018-11-22T15:51:05.041Z,101727.84
2018-11-22T15:53:33.697Z,101723.70
2018-11-22T15:56:02.245Z,101730.29
2018-11-22T15:58:30.845Z,101730.12
2018-11-22T16:00:59.456Z,101724.33
2018-11-22T16:03:28.113Z,101731.64
2018-11-22T16:05:56.790Z,101731.64
2018-11-22T16:08:25.475Z,101729.94
2018-11-22T16:10:54.167Z,101733.34
2018-11-22T16:13:22.786Z,101736.77
2018-11-22T16:15:52.996Z,101737.75
2018-11-22T16:18:21.671Z,101732.08
2018-11-22T16:20:50.511Z,101742.52
2018-11-22T16:23:19.203Z,101734.41
2018-11-22T16:25:47.886Z,101741.25
2018-11-22T16:28:16.551Z,101742.63
2018-11-22T16:30:45.408Z,101737.66
2018-11-22T16:33:13.945Z,101735.33
2018-11-22T16:35:42.548Z,101740.89
2018-11-22T16:38:11.131Z,101728.64
2018-11-22T16:40:39.793Z,101737.73
2018-11-22T16:43:08.498Z,101735.52
2018-11-22T16:45:38.107Z,101733.33
2018-11-22T16:48:09.149Z,101732.34
2018-11-22T16:50:39.106Z,101727.66
2018-11-22T16:53:07.789Z,101728.17
2018-11-22T16:55:36.544Z,101730.79
2018-11-22T16:58:05.591Z,101735.05
2018-11-22T17:00:36.327Z,101734.44
2018-11-22T17:03:07.525Z,101733.84
2018-11-22T17:05:36.766Z,101731.28
2018-11-22T17:08:06.145Z,101730.52
2018-11-22T17:10:35.373Z,101729.89
2018-11-22T17:13:04.693Z,101737.23
2018-11-22T17:15:34.885Z,101728.92
2018-11-22T17:18:04.188Z,101726.42
2018-11-22T17:20:33.177Z,101730.43
2018-11-22T17:23:02.409Z,101728.41
2018-11-22T17:25:32.361Z,101729.67
2018-11-22T17:28:02.570Z,101723.95
2018-11-22T17:30:32.918Z,101725.77
2018-11-22T17:33:01.556Z,101728.39
2018-11-22T17:36:59.639Z,101724.41
2018-11-22T17:39:31.472Z,101726.76
2018-11-22T17:41:56.810Z,101726.52
2018-11-22T17:44:25.431Z,101730.05
2018-11-22T17:46:54.231Z,101729.81
2018-11-22T17:49:22.922Z,101726.28
2018-11-22T17:51:51.489Z,101729.38
2018-11-22T17:54:20.265Z,101725.28
2018-11-22T17:56:48.888Z,101725.72
2018-11-22T17:59:17.560Z,101725.84
2018-11-22T18:01:46.275Z,101725.00
2018-11-22T18:04:14.949Z,101724.45
2018-11-22T18:06:43.821Z,101726.24
2018-11-22T18:09:12.812Z,101723.06
2018-11-22T18:11:41.595Z,101723.58
2018-11-22T18:14:10.327Z,101724.72
2018-11-22T18:16:38.935Z,101727.26
2018-11-22T18:19:07.576Z,101728.69
2018-11-22T18:21:36.441Z,101731.50
2018-11-22T18:24:06.058Z,101731.25
2018-11-22T18:26:34.713Z,101738.84
2018-11-22T18:29:03.323Z,101729.06
2018-11-22T18:31:31.955Z,101727.56
2018-11-22T18:34:00.685Z,101728.12
2018-11-22T18:36:29.314Z,101734.91
2018-11-22T18:38:57.969Z,101723.47
2018-11-22T18:41:26.688Z,101728.19
2018-11-22T18:43:55.343Z,101727.83
2018-11-22T18:46:23.997Z,101738.25
2018-11-22T18:48:52.492Z,101729.23
2018-11-22T18:51:21.011Z,101725.86
2018-11-22T18:53:49.697Z,101729.23
2018-11-22T18:56:18.282Z,101727.31
2018-11-22T18:58:46.917Z,101733.00
2018-11-22T19:01:15.582Z,101732.23
2018-11-22T19:03:44.368Z,101726.23
2018-11-22T19:06:13.043Z,101734.95
2018-11-22T19:08:41.664Z,101727.20
2018-11-22T19:11:10.550Z,101727.97
2018-11-22T19:13:39.263Z,101720.84
2018-11-22T19:16:07.820Z,101724.84
2018-11-22T19:18:36.455Z,101721.53
2018-11-22T19:21:05.146Z,101726.03
2018-11-22T19:23:33.776Z,101725.02
2018-11-22T19:26:02.437Z,101728.12
2018-11-22T19:28:31.030Z,101716.23
2018-11-22T19:30:59.601Z,101714.98
2018-11-22T19:33:28.339Z,101713.14
2018-11-22T19:35:56.898Z,101713.69
2018-11-22T19:38:25.645Z,101714.95
2018-11-22T19:40:54.242Z,101711.71
2018-11-22T19:43:22.998Z,101720.45
2018-11-22T19:45:52.176Z,101713.20
2018-11-22T19:48:20.820Z,101722.57
2018-11-22T19:50:49.426Z,101723.09
2018-11-22T19:53:17.975Z,101714.02
2018-11-22T19:55:46.597Z,101714.95
2018-11-22T19:58:16.444Z,101712.93
2018-11-22T20:00:45.049Z,101709.00
2018-11-22T20:03:13.663Z,101715.17
2018-11-22T20:05:42.731Z,101708.70
2018-11-22T20:08:14.055Z,101716.25
2018-11-22T20:10:43.820Z,101715.73
2018-11-22T20:13:12.435Z,101710.88
2018-11-22T20:15:41.158Z,101710.59
2018-11-22T20:18:10.763Z,101710.27
2018-11-22T20:20:39.408Z,101714.20
2018-11-22T20:23:07.961Z,101721.53
2018-11-22T20:25:36.554Z,101709.86
2018-11-22T20:28:05.615Z,101719.94
2018-11-22T20:30:35.769Z,101718.37
2018-11-22T20:33:04.396Z,101709.89
2018-11-22T20:35:33.263Z,101714.39
2018-11-22T20:38:01.984Z,101720.66
2018-11-22T20:40:30.823Z,101716.74
2018-11-22T20:43:00.061Z,101720.34
2018-11-22T20:45:29.794Z,101722.70
2018-11-22T20:48:00.852Z,101726.33
2018-11-22T20:50:30.870Z,101728.48
2018-11-22T20:52:59.348Z,101725.02
2018-11-22T20:55:30.533Z,101721.13
2018-11-22T20:58:00.557Z,101720.02
2018-11-22T21:00:30.923Z,101720.06
2018-11-22T21:02:59.556Z,101729.84
2018-11-22T21:05:29.029Z,101728.92
2018-11-22T21:07:57.482Z,101722.50
2018-11-22T21:10:27.276Z,101729.09
2018-11-22T21:12:55.965Z,101728.09
2018-11-22T21:15:25.971Z,101735.59
2018-11-22T21:17:56.388Z,101727.72
2018-11-22T21:20:27.511Z,101724.19
2018-11-22T21:22:56.022Z,101728.25
2018-11-22T21:25:24.589Z,101725.23
2018-11-22T21:27:53.361Z,101722.88
2018-11-22T21:30:24.861Z,101724.59
2018-11-22T21:32:53.724Z,101719.38
2018-11-22T21:35:22.617Z,101720.33
2018-11-22T21:37:52.304Z,101718.59
2018-11-22T21:40:21.745Z,101719.64
2018-11-22T21:42:50.534Z,101720.96
2018-11-22T21:45:20.730Z,101721.11
2018-11-22T21:47:49.370Z,101724.33
2018-11-22T21:50:19.257Z,101733.42
2018-11-22T21:52:47.861Z,101727.26
2018-11-22T21:55:18.688Z,101725.82
2018-11-22T21:57:47.827Z,101733.47
2018-11-22T22:00:19.863Z,101719.08
2018-11-22T22:02:52.660Z,101727.09
2018-11-22T22:05:18.822Z,101725.55
2018-11-22T22:07:47.342Z,101725.63
2018-11-22T22:10:16.003Z,101729.75
2018-11-22T22:12:44.548Z,101726.62
2018-11-22T22:15:15.414Z,101722.30
2018-11-22T22:17:44.751Z,101710.39
2018-11-22T22:20:17.146Z,101717.66
2018-11-22T22:22:45.684Z,101712.25
2018-11-22T22:25:18.606Z,101718.24
2018-11-22T22:27:47.635Z,101715.70
2018-11-22T22:30:23.957Z,101719.59
2018-11-22T22:32:53.867Z,101717.84
2018-11-22T22:35:22.578Z,101714.42
2018-11-22T22:37:51.285Z,101719.77
2018-11-22T22:40:21.266Z,101718.20
2018-11-22T22:42:50.818Z,101712.74
2018-11-22T22:45:20.414Z,101716.81
2018-11-22T22:47:49.612Z,101716.53
2018-11-22T22:50:21.234Z,101716.06
2018-11-22T22:52:51.214Z,101716.69
2018-11-22T22:55:19.816Z,101713.81
2018-11-22T22:57:48.375Z,101708.36
2018-11-22T23:00:24.193Z,101711.20
2018-11-22T23:02:54.084Z,101714.54
2018-11-22T23:05:23.620Z,101707.74
2018-11-22T23:07:52.192Z,101712.47
2018-11-22T23:10:21.207Z,101710.80
2018-11-22T23:12:49.743Z,101709.92
2018-11-22T23:15:19.112Z,101703.92
2018-11-22T23:17:47.630Z,101706.91
2018-11-22T23:20:18.756Z,101705.64
2018-11-22T23:22:47.753Z,101709.02
2018-11-22T23:25:17.290Z,101710.73
2018-11-22T23:27:45.918Z,101702.54
2018-11-22T23:30:16.882Z,101707.78
2018-11-22T23:32:47.856Z,101700.70
2018-11-22T23:35:16.786Z,101708.18
2018-11-22T23:37:45.380Z,101700.30
2018-11-22T23:40:17.152Z,101706.69
2018-11-22T23:42:45.814Z,101703.38
2018-11-22T23:45:15.907Z,101706.68
2018-11-22T23:47:45.062Z,101706.09
2018-11-22T23:50:15.721Z,101704.71
2018-11-22T23:52:45.644Z,101702.13
2018-11-22T23:55:14.328Z,101706.27
2018-11-22T23:57:43.066Z,101708.63
